Time;durP1;ratioP1;P1;durP2;ratioP2;P2;SDS_P1;SDS_P2;PMS_P1;PMS_P2;Temp;Humidity;BMP_temperature;BMP_pressure;BME280_temperature;BME280_humidity;BME280_pressure;Samples;Min_cycle;Max_cycle;Signal;HPM_P1;HPM_P2
2022/01/30 00:01:18;;;;;;;18.80;2.75;;;;;;;3.92;63.67;97675.44;5063236;28;20025;-70
2022/01/30 00:03:44;;;;;;;12.90;2.97;;;;;;;3.95;63.85;97701.88;5045335;28;20493;-70
2022/01/30 00:06:09;;;;;;;13.27;2.67;;;;;;;3.95;63.76;97698.44;5045041;28;20021;-70
2022/01/30 00:08:35;;;;;;;23.38;4.47;;;;;;;3.86;63.81;97685.84;5063029;28;20024;-69
2022/01/30 00:11:08;;;;;;;8.40;1.98;;;;;;;3.91;63.99;97707.13;5062991;28;20520;-68
2022/01/30 00:13:34;;;;;;;12.77;3.05;;;;;;;3.92;63.50;97694.25;5045008;28;20464;-69
2022/01/30 00:16:04;;;;;;;15.88;3.78;;;;;;;3.84;63.45;97685.88;5062952;28;20025;-71
2022/01/30 00:18:45;;;;;;;12.35;2.45;;;;;;;3.97;63.26;97689.84;5062821;28;20017;-70
2022/01/30 00:22:10;;;;;;;14.93;3.57;;;;;;;3.91;62.86;97674.59;5044819;28;20035;-68
2022/01/30 00:24:11;;;;;;;9.93;2.20;;;;;;;3.95;62.83;97681.34;5054412;28;20040;-69
2022/01/30 00:26:39;;;;;;;14.13;3.42;;;;;;;4.04;61.40;97710.22;5044895;28;20017;-69
2022/01/30 00:29:05;;;;;;;9.05;1.90;;;;;;;4.09;60.89;97714.34;5063166;28;20021;-69
2022/01/30 00:31:31;;;;;;;19.63;3.53;;;;;;;4.13;60.45;97711.72;5062938;28;20103;-69
2022/01/30 00:33:57;;;;;;;14.32;3.20;;;;;;;4.12;59.83;97716.00;5062822;28;20021;-69
2022/01/30 00:36:23;;;;;;;8.30;1.63;;;;;;;4.10;59.42;97715.19;5062318;28;20060;-68
2022/01/30 00:38:48;;;;;;;14.57;3.58;;;;;;;4.20;59.68;97736.38;5062943;28;20047;-70
2022/01/30 00:41:14;;;;;;;17.88;3.65;;;;;;;4.19;59.59;97734.66;5044678;28;20033;-69
2022/01/30 00:43:39;;;;;;;19.33;3.15;;;;;;;4.17;59.25;97737.25;5062697;28;20047;-69
2022/01/30 00:46:04;;;;;;;23.00;3.47;;;;;;;4.12;59.11;97746.81;5062821;28;20427;-69
2022/01/30 00:48:30;;;;;;;8.93;2.35;;;;;;;4.24;58.63;97731.97;5065581;28;20029;-69
2022/01/30 00:50:55;;;;;;;14.02;2.95;;;;;;;4.17;59.15;97768.06;5048412;28;20482;-69
2022/01/30 00:53:21;;;;;;;20.73;3.97;;;;;;;4.27;59.13;97765.28;5066302;28;20025;-68
2022/01/30 00:55:46;;;;;;;21.83;2.95;;;;;;;4.28;59.21;97784.97;5066334;28;20115;-68
2022/01/30 00:58:13;;;;;;;13.57;2.42;;;;;;;4.27;59.56;97765.28;5066046;28;20020;-68
2022/01/30 01:00:39;;;;;;;13.80;3.00;;;;;;;4.37;59.35;97800.13;5066131;28;20021;-69
2022/01/30 01:03:04;;;;;;;19.88;3.50;;;;;;;4.38;59.38;97796.69;5065940;28;20025;-69
2022/01/30 01:05:33;;;;;;;22.10;3.28;;;;;;;4.27;59.67;97796.09;5066251;28;20088;-70
2022/01/30 01:08:02;;;;;;;19.85;2.80;;;;;;;4.31;59.32;97790.03;5047956;28;20116;-69
2022/01/30 01:10:40;;;;;;;19.65;3.97;;;;;;;4.41;59.31;97808.63;5066122;28;20021;-69
2022/01/30 01:24:00;;;;;;;9.07;2.05;;;;;;;4.47;59.11;97826.44;5065868;28;20029;-70
2022/01/30 01:26:26;;;;;;;14.80;1.85;;;;;;;4.45;59.12;97830.78;5047779;28;20120;-70
2022/01/30 01:28:52;;;;;;;17.58;3.15;;;;;;;4.44;59.63;97827.34;5065536;28;20385;-69
2022/01/30 01:31:18;;;;;;;20.08;2.78;;;;;;;4.53;60.13;97843.41;5065751;28;20044;-69
2022/01/30 01:34:02;;;;;;;12.43;2.53;;;;;;;4.53;60.64;97887.09;5047615;28;20025;-70
2022/01/30 01:36:27;;;;;;;22.25;2.65;;;;;;;4.38;61.31;97853.19;5065257;28;20032;-70
2022/01/30 01:38:53;;;;;;;22.02;3.90;;;;;;;4.44;61.82;97868.44;5065575;28;20029;-70
2022/01/30 01:41:22;;;;;;;21.85;3.95;;;;;;;4.42;61.95;97877.94;5065479;28;20021;-69
2022/01/30 01:43:49;;;;;;;19.98;2.67;;;;;;;4.41;62.07;97855.69;5065429;28;20025;-69
2022/01/30 01:46:20;;;;;;;15.30;3.10;;;;;;;4.39;62.32;97879.72;5047388;28;20021;-70
2022/01/30 01:48:49;;;;;;;14.23;3.85;;;;;;;4.36;62.51;97885.78;5047057;28;20025;-69
2022/01/30 01:51:19;;;;;;;9.85;2.42;;;;;;;4.41;62.51;97895.97;5065258;28;20053;-69
2022/01/30 01:53:48;;;;;;;12.57;3.15;;;;;;;4.46;62.44;97904.38;5065382;28;20195;-68
2022/01/30 01:56:17;;;;;;;27.10;4.18;;;;;;;4.54;62.32;97904.19;5064969;28;20036;-70
2022/01/30 01:58:44;;;;;;;5.43;1.48;;;;;;;4.49;62.16;97890.63;5064752;28;20029;-70
2022/01/30 02:01:09;;;;;;;17.40;3.15;;;;;;;4.65;62.03;97907.34;5047167;28;20049;-70
2022/01/30 02:03:37;;;;;;;19.25;3.30;;;;;;;4.70;61.84;97913.22;5065039;28;20025;-69
2022/01/30 02:06:04;;;;;;;12.35;2.63;;;;;;;4.68;61.57;97902.13;5047030;28;20017;-70
2022/01/30 02:08:38;;;;;;;19.17;3.70;;;;;;;4.76;61.33;97908.84;5064794;28;20016;-70
2022/01/30 02:24:37;;;;;;;15.07;2.80;;;;;;;5.07;60.07;97965.47;5064772;28;20059;-69
2022/01/30 02:27:04;;;;;;;7.68;1.40;;;;;;;5.02;59.88;97946.72;5064598;28;20586;-68
2022/01/30 02:29:29;;;;;;;20.88;3.45;;;;;;;5.00;59.98;97940.78;5064677;28;20020;-69
2022/01/30 02:31:57;;;;;;;11.73;2.55;;;;;;;5.05;60.02;97963.78;5046413;28;20529;-71
2022/01/30 02:34:27;;;;;;;18.92;3.88;;;;;;;5.16;59.84;97986.69;5064560;28;20024;-69
2022/01/30 02:36:54;;;;;;;18.08;3.45;;;;;;;5.21;59.74;97990.81;5046130;28;20037;-69
2022/01/30 02:39:20;;;;;;;14.20;3.45;;;;;;;5.29;59.53;97988.06;5064615;28;20051;-70
2022/01/30 02:41:46;;;;;;;13.07;3.28;;;;;;;5.20;59.54;97978.84;5064401;28;20028;-70
2022/01/30 02:46:44;;;;;;;13.10;3.28;;;;;;;5.33;58.63;98009.41;5064192;28;20017;-71
2022/01/30 02:51:54;;;;;;;7.72;2.30;;;;;;;5.37;57.41;98036.75;5064215;28;20021;-69
2022/01/30 02:54:20;;;;;;;16.65;2.50;;;;;;;5.42;56.98;98027.19;5064041;28;20033;-69
2022/01/30 02:56:45;;;;;;;13.07;4.53;;;;;;;5.42;56.49;98036.63;5063705;28;20079;-68
2022/01/30 02:59:11;;;;;;;12.63;2.47;;;;;;;5.54;56.21;98071.50;5064008;28;20052;-70
2022/01/30 03:01:37;;;;;;;15.95;2.85;;;;;;;5.57;55.79;98061.94;5063828;28;20025;-69
2022/01/30 03:04:03;;;;;;;10.38;2.00;;;;;;;5.60;55.52;98060.19;5063994;28;20025;-69
2022/01/30 03:06:28;;;;;;;15.95;2.67;;;;;;;5.65;54.91;98074.66;5045588;28;20017;-69
2022/01/30 03:08:54;;;;;;;13.60;2.15;;;;;;;5.58;54.78;98060.22;5045689;28;20028;-70
2022/01/30 03:11:19;;;;;;;9.10;2.30;;;;;;;5.66;54.08;98086.63;5063006;28;20017;-69
2022/01/30 03:13:45;;;;;;;8.02;2.05;;;;;;;5.72;53.88;98082.22;5063799;28;20017;-68
2022/01/30 03:16:10;;;;;;;13.52;2.20;;;;;;;5.76;53.06;98104.41;5063588;28;20036;-70
2022/01/30 03:18:36;;;;;;;9.38;1.65;;;;;;;5.75;51.70;98105.31;5063632;28;20195;-69
2022/01/30 03:21:03;;;;;;;8.90;1.67;;;;;;;5.74;51.91;98112.19;5045366;28;20131;-69
2022/01/30 03:23:29;;;;;;;8.30;1.67;;;;;;;5.76;52.11;98153.31;5063118;28;20060;-69
2022/01/30 03:25:58;;;;;;;6.25;1.85;;;;;;;5.83;48.99;98140.25;5045347;28;20071;-68
2022/01/30 03:28:24;;;;;;;8.27;2.10;;;;;;;5.83;50.34;98149.72;5063227;28;20436;-70
2022/01/30 03:30:54;;;;;;;5.32;1.33;;;;;;;5.79;50.08;98191.88;5045480;28;20492;-69
2022/01/30 03:33:20;;;;;;;5.25;1.58;;;;;;;5.93;49.52;98166.63;5045491;28;20124;-71
2022/01/30 03:35:45;;;;;;;4.38;1.30;;;;;;;5.98;49.89;98168.22;5045081;28;20021;-70
2022/01/30 03:38:11;;;;;;;4.97;1.40;;;;;;;5.95;49.94;98193.19;5063019;28;20120;-71
2022/01/30 03:40:37;;;;;;;3.00;1.25;;;;;;;5.95;50.31;98195.78;5063354;28;20049;-68
2022/01/30 03:43:04;;;;;;;6.43;1.60;;;;;;;6.05;49.80;98203.28;5045454;28;20025;-70
2022/01/30 03:45:29;;;;;;;6.65;1.60;;;;;;;6.04;49.21;98227.31;5045308;28;20051;-69
2022/01/30 03:47:57;;;;;;;4.75;1.15;;;;;;;6.07;49.22;98250.47;5062968;28;20017;-67
2022/01/30 03:50:23;;;;;;;3.22;1.25;;;;;;;6.01;47.76;98238.56;5063187;28;20021;-69
2022/01/30 03:52:49;;;;;;;2.83;1.00;;;;;;;6.09;48.46;98269.28;5063089;28;20029;-69
2022/01/30 03:55:14;;;;;;;7.45;1.27;;;;;;;6.15;47.75;98268.31;5063088;28;20068;-70
2022/01/30 03:57:39;;;;;;;2.95;1.00;;;;;;;6.18;48.04;98289.69;5044693;28;20039;-69
2022/01/30 04:00:09;;;;;;;4.93;1.20;;;;;;;6.17;48.27;98277.69;5044988;28;20041;-69
2022/01/30 04:02:35;;;;;;;6.70;1.35;;;;;;;6.17;48.26;98293.16;5044947;28;20020;-69
2022/01/30 04:05:00;;;;;;;7.75;1.15;;;;;;;6.18;48.01;98307.72;5063029;28;20047;-69
2022/01/30 04:07:26;;;;;;;4.93;1.30;;;;;;;6.21;48.00;98309.41;5062878;28;20024;-70
2022/01/30 04:09:52;;;;;;;4.97;1.10;;;;;;;6.22;47.78;98336.84;5044759;28;20021;-70
2022/01/30 04:12:18;;;;;;;5.80;1.30;;;;;;;6.16;47.84;98361.03;5062818;28;20025;-70
2022/01/30 04:14:43;;;;;;;5.10;1.05;;;;;;;6.18;48.00;98348.94;5062703;28;20046;-69
2022/01/30 04:17:09;;;;;;;0.70;0.63;;;;;;;6.13;47.22;98379.16;5062755;28;20167;-69
2022/01/30 04:19:36;;;;;;;7.90;1.52;;;;;;;6.14;47.56;98382.53;5062836;28;20049;-69
2022/01/30 04:22:01;;;;;;;2.97;0.80;;;;;;;6.18;47.15;98403.06;5047124;28;20029;-68
2022/01/30 04:24:26;;;;;;;4.15;1.05;;;;;;;6.21;46.54;98417.63;5066827;28;20028;-69
2022/01/30 04:26:52;;;;;;;1.40;0.70;;;;;;;6.23;47.25;98430.47;5066449;28;20116;-69
2022/01/30 04:29:17;;;;;;;3.22;1.05;;;;;;;6.26;47.37;98435.53;5066729;28;20044;-69
2022/01/30 04:31:43;;;;;;;3.90;1.15;;;;;;;6.31;47.05;98429.41;5048607;28;20021;-70
2022/01/30 04:34:10;;;;;;;3.67;1.10;;;;;;;6.25;46.98;98452.72;5066457;28;20056;-69
2022/01/30 04:36:41;;;;;;;5.57;1.42;;;;;;;6.25;47.55;98451.88;5066158;28;20103;-69
2022/01/30 04:39:28;;;;;;;5.90;1.30;;;;;;;6.35;47.87;98471.41;5066433;28;20397;-70
2022/01/30 04:58:14;;;;;;;10.35;1.35;;;;;;;6.41;48.59;98527.97;5065890;28;20524;-69
2022/01/30 05:04:17;;;;;;;6.78;1.73;;;;;;;6.45;48.24;98563.13;4984599;28;20039;-68
2022/01/30 05:06:55;;;;;;;3.95;1.38;;;;;;;6.37;48.20;98544.41;4984252;28;20312;-65
2022/01/30 05:09:21;;;;;;;4.32;1.00;;;;;;;6.43;48.12;98557.16;4984611;28;20034;-69
2022/01/30 05:11:46;;;;;;;5.13;1.73;;;;;;;6.43;47.97;98571.78;4984218;28;20062;-68
2022/01/30 05:14:14;;;;;;;4.22;1.50;;;;;;;6.42;47.97;98577.81;4984494;28;20033;-69
2022/01/30 05:16:39;;;;;;;4.15;1.50;;;;;;;6.37;48.17;98593.38;4984585;28;20042;-70
2022/01/30 05:19:08;;;;;;;6.05;1.50;;;;;;;6.44;48.33;98592.38;4968281;28;20042;-70
2022/01/30 05:21:33;;;;;;;7.10;1.48;;;;;;;6.41;47.87;98595.00;4983927;28;20435;-69
2022/01/30 05:23:59;;;;;;;4.93;1.20;;;;;;;6.40;47.80;98616.53;4967900;28;20037;-69
2022/01/30 05:26:26;;;;;;;7.03;2.38;;;;;;;6.41;48.73;98599.31;4984171;28;20113;-70
2022/01/30 05:28:52;;;;;;;6.65;1.83;;;;;;;6.42;47.90;98593.28;4983905;28;20085;-71
2022/01/30 05:31:18;;;;;;;7.93;1.88;;;;;;;6.41;47.87;98625.94;4983987;28;20043;-68
2022/01/30 05:33:44;;;;;;;3.42;1.17;;;;;;;6.41;47.86;98625.06;4983267;28;20050;-69
2022/01/30 05:36:10;;;;;;;7.00;1.17;;;;;;;6.42;48.06;98632.78;4983886;28;20046;-71
2022/01/30 05:38:35;;;;;;;10.18;2.45;;;;;;;6.34;48.54;98613.22;5055465;28;20049;-71
2022/01/30 05:41:01;;;;;;;11.48;2.92;;;;;;;6.35;48.44;98646.69;5047251;28;20037;-69
2022/01/30 05:43:30;;;;;;;8.55;1.92;;;;;;;6.35;48.65;98657.00;5065370;28;20017;-69
2022/01/30 05:46:10;;;;;;;16.58;2.28;;;;;;;6.35;48.86;98672.47;5065431;28;20025;-69
2022/01/30 05:48:36;;;;;;;5.50;2.03;;;;;;;6.31;49.52;98691.44;5065103;28;20016;-70
2022/01/30 05:51:01;;;;;;;9.18;1.90;;;;;;;6.29;49.53;98682.88;5065558;28;20021;-70
2022/01/30 05:53:27;;;;;;;8.40;2.13;;;;;;;6.16;49.52;98680.53;5047088;28;20032;-69
2022/01/30 05:55:52;;;;;;;5.60;1.58;;;;;;;6.20;49.45;98707.94;5065125;28;20036;-69
2022/01/30 05:58:17;;;;;;;6.15;1.38;;;;;;;6.22;49.36;98737.97;5064914;28;20021;-70
2022/01/30 06:00:43;;;;;;;9.82;2.28;;;;;;;6.20;49.65;98749.16;5064920;28;20414;-70
2022/01/30 06:03:08;;;;;;;8.65;2.00;;;;;;;6.14;49.73;98727.81;5065019;28;20020;-70
2022/01/30 06:05:34;;;;;;;7.18;1.70;;;;;;;6.11;49.96;98751.91;5064968;28;20046;-69
2022/01/30 06:08:09;;;;;;;11.35;1.77;;;;;;;6.15;49.72;98766.44;5046761;28;20017;-69
2022/01/30 06:10:35;;;;;;;3.72;0.82;;;;;;;6.07;49.67;98782.03;5064892;28;20035;-70
2022/01/30 06:13:00;;;;;;;7.88;1.65;;;;;;;6.01;49.81;98784.66;5064890;28;20025;-69
2022/01/30 06:15:26;;;;;;;5.32;1.17;;;;;;;6.02;49.70;98777.81;5064921;28;20025;-71
2022/01/30 06:17:51;;;;;;;5.82;1.80;;;;;;;6.07;49.39;98818.09;5046782;28;20021;-69
2022/01/30 06:20:17;;;;;;;7.15;1.90;;;;;;;6.09;49.31;98812.91;5064594;28;20021;-69
2022/01/30 06:22:42;;;;;;;7.57;1.60;;;;;;;6.06;49.57;98839.59;5064410;28;20066;-69
2022/01/30 06:25:09;;;;;;;8.00;1.60;;;;;;;6.03;49.66;98836.16;5064781;28;20025;-69
2022/01/30 06:27:34;;;;;;;4.75;1.83;;;;;;;5.99;49.62;98826.78;5064441;28;20025;-70
2022/01/30 06:30:00;;;;;;;11.68;1.52;;;;;;;5.90;49.70;98849.22;5046501;28;20528;-69
2022/01/30 06:32:25;;;;;;;8.27;3.15;;;;;;;5.93;49.65;98856.06;5064546;28;20024;-69
2022/01/30 06:34:51;;;;;;;15.70;2.17;;;;;;;5.94;49.19;98893.84;5064404;28;20159;-69
2022/01/30 06:37:16;;;;;;;2.95;1.30;;;;;;;5.92;49.32;98886.13;5045910;28;20041;-69
2022/01/30 06:39:41;;;;;;;4.05;1.25;;;;;;;5.90;49.33;98877.56;5064241;28;20097;-70
2022/01/30 06:42:07;;;;;;;5.28;1.15;;;;;;;5.91;49.24;98920.47;5064229;28;20497;-69
2022/01/30 06:44:33;;;;;;;6.75;1.30;;;;;;;5.91;49.49;98905.03;5063689;28;20025;-69
2022/01/30 06:46:59;;;;;;;5.78;2.00;;;;;;;5.92;49.35;98927.34;5064203;28;20032;-68
2022/01/30 06:49:24;;;;;;;6.05;1.38;;;;;;;5.90;49.38;98938.53;5046280;28;20025;-68
2022/01/30 06:51:50;;;;;;;6.97;1.40;;;;;;;5.90;49.34;98936.81;5063963;28;20492;-68
2022/01/30 06:54:15;;;;;;;5.63;1.75;;;;;;;5.94;49.50;98966.81;5064239;28;20025;-68
2022/01/30 06:56:40;;;;;;;6.68;1.73;;;;;;;5.93;49.48;98967.69;5063777;28;20029;-68
2022/01/30 06:59:06;;;;;;;6.28;1.25;;;;;;;5.93;49.58;98972.84;5063893;28;20021;-69
2022/01/30 07:01:31;;;;;;;3.22;1.23;;;;;;;5.91;49.29;98969.41;5064107;28;20052;-69
2022/01/30 07:03:57;;;;;;;7.80;1.13;;;;;;;5.89;49.33;98978.03;5063966;28;20017;-71
2022/01/30 07:06:23;;;;;;;6.43;1.52;;;;;;;5.92;49.36;99002.06;5064050;28;20461;-69
2022/01/30 07:08:48;;;;;;;5.70;1.40;;;;;;;5.85;49.66;99002.16;5045589;28;20029;-70
2022/01/30 07:11:15;;;;;;;10.18;1.80;;;;;;;5.90;49.87;99037.28;5045995;28;20454;-69
2022/01/30 07:13:40;;;;;;;6.90;1.70;;;;;;;5.88;49.92;99033.84;5064044;28;20025;-69
2022/01/30 07:16:06;;;;;;;6.28;1.67;;;;;;;5.81;49.94;99030.47;5063930;28;20025;-69
2022/01/30 07:18:31;;;;;;;7.60;1.45;;;;;;;5.90;49.98;99060.44;5063491;28;20025;-68
2022/01/30 07:20:56;;;;;;;9.55;1.83;;;;;;;5.83;50.15;99057.09;5063701;28;20032;-69
2022/01/30 07:23:22;;;;;;;12.52;1.60;;;;;;;5.85;50.12;99066.53;5063470;28;20040;-69
2022/01/30 07:25:47;;;;;;;10.30;1.95;;;;;;;5.82;50.11;99072.56;5063894;28;20247;-70
2022/01/30 07:28:13;;;;;;;9.27;1.67;;;;;;;5.81;50.06;99094.03;5063288;28;20021;-68
2022/01/30 07:30:38;;;;;;;7.35;2.55;;;;;;;5.80;50.13;99097.47;5063452;28;20017;-68
2022/01/30 07:33:04;;;;;;;3.90;1.05;;;;;;;5.81;50.19;99088.88;5045472;28;20032;-69
2022/01/30 07:35:32;;;;;;;5.93;1.38;;;;;;;5.79;50.19;99111.22;5045448;28;20059;-69
2022/01/30 07:37:57;;;;;;;6.82;1.33;;;;;;;5.80;50.23;99136.97;5062896;28;20637;-70
2022/01/30 07:40:23;;;;;;;12.27;2.03;;;;;;;5.82;50.27;99142.09;5063402;28;20029;-68
2022/01/30 07:42:48;;;;;;;6.28;1.60;;;;;;;5.83;50.38;99154.97;5063642;28;20020;-69
2022/01/30 07:45:14;;;;;;;12.98;2.40;;;;;;;5.76;50.50;99152.47;5045560;28;20068;-68
2022/01/30 07:47:39;;;;;;;10.80;1.92;;;;;;;5.86;50.51;99174.72;5063206;28;20216;-71
2022/01/30 07:50:05;;;;;;;12.00;3.03;;;;;;;5.80;50.74;99162.72;5045548;28;20036;-70
2022/01/30 07:52:31;;;;;;;7.80;1.55;;;;;;;5.78;50.88;99184.22;5063301;28;20025;-70
2022/01/30 07:54:56;;;;;;;9.10;2.00;;;;;;;5.89;50.84;99205.59;5063394;28;20064;-69
2022/01/30 07:57:22;;;;;;;4.53;1.33;;;;;;;5.99;50.95;99215.81;5066181;28;20025;-70
2022/01/30 07:59:48;;;;;;;8.48;1.60;;;;;;;6.32;50.48;99224.13;5049606;28;20021;-70
2022/01/30 08:02:14;;;;;;;13.93;2.70;;;;;;;6.76;49.80;99244.25;5067369;28;20036;-70
2022/01/30 08:04:40;;;;;;;4.53;1.00;;;;;;;7.04;48.37;99215.56;5067667;28;20021;-70
2022/01/30 08:07:06;;;;;;;5.88;1.52;;;;;;;7.44;47.67;99234.81;5067065;28;20093;-69
2022/01/30 08:09:31;;;;;;;10.45;1.65;;;;;;;7.67;46.91;99242.22;5067169;28;20025;-70
2022/01/30 08:11:57;;;;;;;6.55;1.48;;;;;;;8.04;46.18;99258.00;5067360;28;20047;-69
2022/01/30 08:14:22;;;;;;;12.23;1.90;;;;;;;8.29;45.64;99262.78;5067071;28;20024;-69
2022/01/30 08:16:48;;;;;;;4.82;1.83;;;;;;;8.53;45.44;99245.13;5067056;28;20025;-70
2022/01/30 08:19:13;;;;;;;11.57;1.80;;;;;;;8.90;45.01;99272.88;5067170;28;20021;-69
2022/01/30 08:21:39;;;;;;;7.47;1.50;;;;;;;9.04;44.18;99282.13;5067028;28;20021;-70
2022/01/30 08:24:05;;;;;;;7.50;1.70;;;;;;;9.22;43.57;99286.06;5066981;28;20017;-69
2022/01/30 08:26:30;;;;;;;6.45;1.52;;;;;;;9.21;43.30;99304.22;5066894;28;20053;-69
2022/01/30 08:28:55;;;;;;;7.05;1.70;;;;;;;9.17;43.39;99298.22;5066762;28;20017;-71
2022/01/30 08:31:21;;;;;;;9.20;1.75;;;;;;;9.13;43.35;99343.22;5048897;28;20568;-70
2022/01/30 08:33:46;;;;;;;7.43;1.95;;;;;;;8.93;43.55;99327.19;5067011;28;20025;-70
2022/01/30 08:36:12;;;;;;;10.18;1.75;;;;;;;8.87;43.79;99336.78;5048841;28;20024;-70
2022/01/30 08:38:37;;;;;;;8.80;2.28;;;;;;;8.84;43.54;99339.44;5048731;28;20036;-71
2022/01/30 08:41:03;;;;;;;9.13;1.88;;;;;;;8.85;43.54;99339.41;5066998;28;20029;-71
2022/01/30 08:43:33;;;;;;;8.52;2.30;;;;;;;9.13;43.42;99372.56;5066949;28;20079;-70
2022/01/30 08:45:59;;;;;;;2.95;1.27;;;;;;;9.18;42.77;99381.06;5048720;28;20043;-70
2022/01/30 08:48:25;;;;;;;4.72;1.30;;;;;;;9.02;42.57;99369.31;5048529;28;20023;-69
2022/01/30 08:50:51;;;;;;;7.15;1.25;;;;;;;8.85;42.47;99398.94;5048526;28;20112;-72
2022/01/30 08:53:16;;;;;;;7.22;2.42;;;;;;;8.94;42.23;99416.06;5066583;28;20112;-72
2022/01/30 08:55:42;;;;;;;7.70;1.92;;;;;;;9.06;42.20;99383.91;5066633;28;20124;-70
2022/01/30 08:58:07;;;;;;;6.82;1.13;;;;;;;9.68;41.91;99412.91;5066210;28;20031;-71
2022/01/30 09:00:35;;;;;;;2.90;1.15;;;;;;;10.26;40.47;99435.00;5066474;28;20107;-69
2022/01/30 09:03:02;;;;;;;8.52;1.70;;;;;;;10.61;39.76;99430.78;5066022;28;20066;-70
2022/01/30 09:05:29;;;;;;;9.27;1.40;;;;;;;11.11;39.15;99432.13;5066166;28;20063;-70
2022/01/30 09:07:54;;;;;;;5.30;1.30;;;;;;;11.36;37.98;99412.41;5064608;28;20028;-72
2022/01/30 09:10:20;;;;;;;8.85;1.50;;;;;;;11.72;37.86;99420.09;5066307;28;20029;-71
2022/01/30 09:12:45;;;;;;;6.35;1.40;;;;;;;12.02;37.54;99422.66;5066041;28;20029;-71
2022/01/30 09:15:13;;;;;;;3.60;1.35;;;;;;;12.38;36.50;99407.75;5066350;28;20103;-70
2022/01/30 09:17:40;;;;;;;7.30;1.88;;;;;;;12.60;35.37;99439.09;5065943;28;20013;-73
2022/01/30 09:20:06;;;;;;;2.25;1.20;;;;;;;12.60;33.99;99448.69;5066015;28;20033;-69
2022/01/30 09:22:31;;;;;;;4.38;1.20;;;;;;;12.35;34.79;99458.13;5047626;28;20092;-70
2022/01/30 09:24:57;;;;;;;4.80;1.05;;;;;;;12.52;33.49;99472.38;5065962;28;20049;-70
2022/01/30 09:27:22;;;;;;;5.40;1.40;;;;;;;12.61;34.55;99464.25;5065684;28;20036;-70
2022/01/30 09:29:47;;;;;;;4.80;1.58;;;;;;;12.97;34.14;99486.53;5047508;28;20025;-67
2022/01/30 09:32:14;;;;;;;7.25;1.40;;;;;;;13.35;34.38;99490.50;5065798;28;20052;-64
2022/01/30 09:34:39;;;;;;;6.88;1.45;;;;;;;13.71;33.78;99499.72;5065291;28;20029;-69
2022/01/30 09:37:06;;;;;;;4.60;1.30;;;;;;;13.92;33.54;99512.88;5065186;28;20060;-69
2022/01/30 09:39:32;;;;;;;6.38;1.40;;;;;;;14.19;31.24;99524.06;5065557;28;20135;-70
2022/01/30 09:41:57;;;;;;;3.05;0.95;;;;;;;14.20;31.56;99553.63;5065857;28;20029;-68
2022/01/30 09:44:23;;;;;;;5.25;1.50;;;;;;;14.26;31.09;99519.47;5065395;28;20031;-68
2022/01/30 09:46:50;;;;;;;4.07;1.00;;;;;;;14.46;30.10;99564.81;5065514;28;20055;-69
2022/01/30 09:49:20;;;;;;;5.15;1.73;;;;;;;14.02;28.79;99560.38;5065263;28;20021;-70
2022/01/30 09:51:46;;;;;;;3.72;1.00;;;;;;;13.66;28.47;99562.47;5065016;28;20031;-69
2022/01/30 09:54:12;;;;;;;3.03;1.02;;;;;;;13.32;28.86;99567.03;5065358;28;20103;-69
2022/01/30 09:56:38;;;;;;;3.78;1.00;;;;;;;13.17;29.69;99597.09;5065199;28;20025;-68
2022/01/30 09:59:04;;;;;;;1.65;0.80;;;;;;;13.30;28.28;99594.06;5065126;28;20067;-67
2022/01/30 10:01:35;;;;;;;4.50;0.93;;;;;;;12.88;29.45;99602.31;5065150;28;20051;-66
2022/01/30 10:04:02;;;;;;;4.03;1.08;;;;;;;12.88;29.55;99594.50;5065168;28;20020;-69
2022/01/30 10:06:38;;;;;;;2.67;0.93;;;;;;;12.84;28.23;99603.31;5065073;28;20029;-67
2022/01/30 10:09:20;;;;;;;5.30;1.08;;;;;;;12.88;28.70;99635.31;5064678;28;20017;-68
2022/01/30 10:11:59;;;;;;;3.22;0.80;;;;;;;13.39;28.38;99638.94;5064822;28;20051;-69
2022/01/30 10:14:24;;;;;;;4.57;0.95;;;;;;;13.85;28.42;99647.94;5064951;28;20052;-67
2022/01/30 10:16:50;;;;;;;5.50;1.13;;;;;;;14.16;27.46;99656.44;5064747;28;20511;-68
2022/01/30 10:19:19;;;;;;;4.90;0.95;;;;;;;14.24;27.95;99663.09;5064739;28;20016;-67
2022/01/30 10:21:47;;;;;;;8.30;1.30;;;;;;;14.33;27.13;99677.56;5064549;28;20021;-68
2022/01/30 10:24:24;;;;;;;2.97;0.85;;;;;;;14.44;26.45;99689.41;5064852;28;20029;-67
2022/01/30 10:26:51;;;;;;;3.47;1.00;;;;;;;14.52;26.18;99689.13;5064678;28;20041;-67
2022/01/30 10:29:21;;;;;;;3.47;0.80;;;;;;;14.58;26.41;99678.44;5065894;28;20052;-67
2022/01/30 10:31:58;;;;;;;4.05;0.93;;;;;;;14.40;25.72;99699.09;5048728;28;20048;-67
2022/01/30 10:34:23;;;;;;;2.35;1.00;;;;;;;14.07;25.63;99700.25;5070235;28;20035;-66
2022/01/30 10:36:48;;;;;;;4.65;0.90;;;;;;;13.47;25.23;99706.50;5067840;28;20045;-68
2022/01/30 10:39:18;;;;;;;2.58;0.70;;;;;;;13.23;25.93;99728.94;5064255;28;20047;-68
2022/01/30 10:41:53;;;;;;;5.20;0.70;;;;;;;12.72;25.74;99720.88;5046447;28;20028;-67
2022/01/30 10:44:19;;;;;;;3.50;0.88;;;;;;;12.05;25.49;99744.28;5064459;28;20044;-68
2022/01/30 10:46:48;;;;;;;2.45;0.70;;;;;;;11.45;26.69;99746.59;5064050;28;20028;-67
2022/01/30 10:49:21;;;;;;;2.40;0.80;;;;;;;11.01;26.70;99729.34;5045962;28;20021;-67
2022/01/30 10:52:01;;;;;;;1.75;0.70;;;;;;;10.89;26.70;99743.44;5064108;28;20067;-67
2022/01/30 10:54:31;;;;;;;1.42;0.80;;;;;;;10.65;26.08;99754.28;5064016;28;20035;-66
2022/01/30 10:57:05;;;;;;;3.03;0.63;;;;;;;10.27;26.15;99766.22;5064164;28;20021;-69
2022/01/30 10:59:30;;;;;;;1.02;0.60;;;;;;;9.75;25.15;99781.72;5046116;28;20032;-67
2022/01/30 11:02:10;;;;;;;0.80;0.57;;;;;;;9.20;26.04;99771.25;5046251;28;20017;-67
2022/01/30 11:04:36;;;;;;;3.55;0.60;;;;;;;9.00;26.45;99775.81;5064011;28;20473;-67
2022/01/30 11:07:03;;;;;;;3.38;0.70;;;;;;;8.96;26.14;99788.81;5063825;28;20042;-66
2022/01/30 11:09:37;;;;;;;2.35;0.70;;;;;;;8.99;26.77;99787.06;5045994;28;20017;-67
2022/01/30 11:12:09;;;;;;;1.45;0.75;;;;;;;9.27;27.81;99781.50;5063726;28;20078;-68
2022/01/30 11:14:40;;;;;;;;;;;;;;;9.80;28.25;99803.25;5064243;28;20107;-66
2022/01/30 11:17:08;;;;;;;4.35;1.17;;;;;;;10.04;29.01;99789.06;5063859;28;19931;-68
2022/01/30 11:19:44;;;;;;;8.38;1.38;;;;;;;10.56;29.25;99797.75;5063811;28;20044;-68
2022/01/30 11:22:17;;;;;;;11.25;1.38;;;;;;;11.10;29.27;99801.88;5063514;28;20025;-67
2022/01/30 11:24:54;;;;;;;4.25;1.58;;;;;;;11.60;29.15;99785.22;5064052;28;20085;-66
2022/01/30 11:27:22;;;;;;;3.05;1.58;;;;;;;12.03;28.75;99804.19;5063568;28;20017;-68
2022/01/30 11:29:49;;;;;;;3.50;0.93;;;;;;;12.31;28.11;99815.69;5063820;28;20024;-67
2022/01/30 11:32:16;;;;;;;4.35;1.20;;;;;;;12.65;28.17;99808.75;5063134;28;20085;-67
2022/01/30 11:34:43;;;;;;;10.48;1.52;;;;;;;13.16;27.68;99808.25;5063733;28;20579;-67
2022/01/30 11:37:11;;;;;;;5.85;1.23;;;;;;;13.48;27.34;99803.84;5063298;28;20053;-67
2022/01/30 11:39:42;;;;;;;6.25;1.27;;;;;;;13.73;27.04;99811.78;5063814;28;20025;-67
2022/01/30 11:42:20;;;;;;;6.90;1.43;;;;;;;13.62;26.81;99813.88;5063525;28;20055;-67
2022/01/30 11:45:06;;;;;;;4.57;1.23;;;;;;;12.24;28.39;99816.72;5063754;28;20025;-68
2022/01/30 11:47:55;;;;;;;5.80;1.25;;;;;;;10.80;30.63;99832.75;5063216;28;20408;-67
2022/01/30 11:50:29;;;;;;;4.30;1.10;;;;;;;9.76;31.87;99823.16;5063327;28;20024;-67
2022/01/30 11:53:07;;;;;;;5.32;1.40;;;;;;;9.10;33.33;99851.66;5063162;28;20057;-69
2022/01/30 11:55:54;;;;;;;6.88;1.17;;;;;;;8.58;34.42;99851.31;5063435;28;20032;-66
2022/01/30 11:58:38;;;;;;;6.93;1.30;;;;;;;8.07;34.81;99852.53;5062906;28;20033;-68
2022/01/30 12:01:25;;;;;;;3.50;0.90;;;;;;;7.77;35.30;99869.97;5063182;28;20032;-66
2022/01/30 12:04:04;;;;;;;3.72;0.98;;;;;;;7.48;35.72;99873.53;5063179;28;20021;-68
2022/01/30 12:06:41;;;;;;;3.47;1.40;;;;;;;7.20;36.06;99866.78;5063203;28;20025;-68
2022/01/30 12:09:16;;;;;;;5.78;1.55;;;;;;;7.00;36.39;99880.56;5062620;28;20036;-68
2022/01/30 12:11:43;;;;;;;4.93;1.10;;;;;;;6.89;36.80;99879.72;5062955;28;20021;-67
2022/01/30 12:14:21;;;;;;;2.75;0.93;;;;;;;6.85;37.13;99890.94;5063145;28;20021;-67
2022/01/30 12:16:52;;;;;;;9.15;1.30;;;;;;;6.76;37.32;99884.91;5063040;28;20035;-67
2022/01/30 12:22:15;;;;;;;3.08;1.10;;;;;;;6.62;37.50;99895.25;5062913;28;20462;-67
2022/01/30 12:24:41;;;;;;;5.45;1.70;;;;;;;6.51;37.16;99908.16;5062963;28;20019;-69
2022/01/30 12:27:07;;;;;;;7.28;1.20;;;;;;;6.44;37.53;99924.47;5062874;28;20056;-68
2022/01/30 12:29:58;;;;;;;4.65;1.33;;;;;;;6.36;37.78;99892.69;5062617;28;20027;-68
2022/01/30 12:32:24;;;;;;;3.13;0.98;;;;;;;6.33;37.85;99909.00;5040891;28;20029;-68
2022/01/30 12:34:52;;;;;;;7.85;1.20;;;;;;;6.29;37.96;99904.69;5062893;28;20016;-68